createdAt,value
2018-06-18T08:23:11.512Z,7.30
2018-06-18T08:24:13.062Z,8.60
2018-06-18T08:25:11.146Z,8.50
2018-06-18T08:26:10.939Z,9.50
2018-06-18T08:27:14.855Z,9.00
2018-06-18T08:28:11.057Z,13.00
2018-06-18T08:29:13.170Z,28.90
2018-06-18T08:30:12.435Z,15.00
2018-06-18T08:31:10.972Z,9.80
2018-06-18T08:32:11.063Z,9.00
2018-06-18T08:33:11.681Z,9.10
2018-06-18T08:34:11.087Z,9.30
2018-06-18T08:35:12.112Z,9.90
2018-06-18T08:36:11.096Z,11.10
2018-06-18T08:37:10.973Z,10.80
2018-06-18T08:38:12.023Z,10.10
2018-06-18T08:39:11.056Z,9.60
2018-06-18T08:40:11.036Z,10.10
2018-06-18T08:41:11.981Z,8.10
2018-06-18T08:42:11.984Z,9.60
2018-06-18T08:43:11.588Z,8.30
2018-06-18T08:44:11.046Z,8.10
2018-06-18T08:45:11.916Z,9.50
2018-06-18T08:46:11.229Z,9.50
2018-06-18T08:47:10.966Z,9.50
2018-06-18T08:48:11.000Z,8.70
2018-06-18T08:49:11.722Z,8.70
2018-06-18T08:50:11.084Z,7.60
2018-06-18T08:51:11.698Z,8.70
2018-06-18T08:52:11.025Z,8.60
2018-06-18T08:53:15.044Z,10.70
2018-06-18T08:54:11.024Z,9.00
2018-06-18T08:55:25.870Z,10.60
2018-06-18T08:57:32.993Z,9.80
2018-06-18T08:58:11.143Z,8.60
2018-06-18T08:59:11.128Z,9.60
2018-06-18T09:00:11.612Z,9.70
2018-06-18T09:01:12.330Z,9.50
2018-06-18T09:02:11.103Z,8.40
2018-06-18T09:03:11.962Z,9.40
2018-06-18T09:04:11.901Z,8.30
2018-06-18T09:05:12.197Z,9.40
2018-06-18T09:06:11.103Z,10.10
2018-06-18T09:07:11.047Z,9.50
2018-06-18T09:08:11.118Z,9.60
2018-06-18T09:09:14.197Z,8.90
2018-06-18T09:10:15.122Z,7.70
2018-06-18T09:11:12.296Z,8.10
2018-06-18T09:12:11.162Z,7.40
2018-06-18T09:13:11.198Z,7.90
2018-06-18T09:14:11.226Z,9.30
2018-06-18T09:15:11.168Z,7.40
2018-06-18T09:16:11.325Z,9.70
2018-06-18T09:17:11.908Z,7.40
2018-06-18T09:18:15.924Z,6.60
2018-06-18T09:19:11.220Z,8.00
2018-06-18T09:20:11.853Z,7.00
2018-06-18T09:21:29.567Z,7.90
2018-06-18T09:22:11.535Z,6.80
2018-06-18T09:23:11.596Z,6.10
2018-06-18T09:24:13.670Z,11.20
2018-06-18T09:25:16.078Z,7.20
2018-06-18T09:26:13.419Z,11.10
2018-06-18T09:27:13.622Z,8.30
2018-06-18T09:28:11.278Z,7.00
2018-06-18T09:29:11.283Z,6.80
2018-06-18T09:30:11.313Z,7.10
2018-06-18T09:31:13.139Z,7.40
2018-06-18T09:32:12.634Z,8.70
2018-06-18T09:33:12.136Z,7.00
2018-06-18T09:34:11.352Z,9.60
2018-06-18T09:35:11.725Z,8.00
2018-06-18T09:36:12.537Z,8.00
2018-06-18T09:37:14.669Z,8.60
2018-06-18T09:38:11.934Z,8.40
2018-06-18T09:39:11.775Z,7.70
2018-06-18T09:40:13.146Z,7.20
2018-06-18T09:41:14.265Z,7.80
2018-06-18T09:42:12.163Z,6.90
2018-06-18T09:43:11.927Z,7.00
2018-06-18T09:44:11.929Z,6.80
2018-06-18T09:45:11.402Z,7.70
2018-06-18T09:46:14.109Z,7.20
2018-06-18T09:47:11.325Z,7.90
2018-06-18T09:48:11.827Z,9.80
2018-06-18T09:49:11.650Z,7.80
2018-06-18T09:50:11.352Z,7.40
2018-06-18T09:51:11.372Z,7.60
2018-06-18T09:52:11.436Z,7.60
2018-06-18T09:53:12.081Z,6.70
2018-06-18T09:54:11.364Z,8.20
2018-06-18T09:55:11.412Z,7.60
2018-06-18T09:56:11.405Z,8.00
2018-06-18T09:57:11.534Z,6.20
2018-06-18T09:58:13.846Z,5.90
2018-06-18T09:59:13.256Z,5.80
2018-06-18T10:00:12.206Z,10.00
2018-06-18T10:01:12.411Z,7.60
2018-06-18T10:02:11.482Z,6.30
2018-06-18T10:03:11.643Z,6.90
2018-06-18T10:04:11.479Z,6.80
2018-06-18T10:05:11.408Z,7.10
2018-06-18T10:06:11.929Z,7.10
2018-06-18T10:07:13.786Z,6.20
2018-06-18T10:08:11.544Z,6.50
2018-06-18T10:09:11.560Z,6.40
2018-06-18T10:10:11.566Z,5.60
2018-06-18T10:11:11.494Z,5.60
2018-06-18T10:12:11.518Z,6.30
2018-06-18T10:13:11.496Z,6.30
2018-06-18T10:14:11.473Z,6.00
2018-06-18T10:15:11.567Z,8.00
2018-06-18T10:16:11.491Z,8.10
2018-06-18T10:17:11.532Z,6.40
2018-06-18T10:18:11.690Z,8.60
2018-06-18T10:19:11.588Z,6.30
2018-06-18T10:20:12.084Z,7.30
2018-06-18T10:21:11.652Z,7.80
2018-06-18T10:22:11.512Z,5.70
2018-06-18T10:23:11.572Z,7.30
2018-06-18T10:24:11.759Z,7.40
2018-06-18T10:25:11.588Z,6.50
2018-06-18T10:26:11.546Z,6.90
2018-06-18T10:27:11.510Z,7.50
2018-06-18T10:28:11.592Z,6.50
2018-06-18T10:29:12.948Z,6.00
2018-06-18T10:30:11.602Z,6.90
2018-06-18T10:31:12.786Z,6.10
2018-06-18T10:32:11.886Z,6.90
2018-06-18T10:33:11.648Z,8.60
2018-06-18T10:34:11.659Z,6.40
2018-06-18T10:35:11.586Z,7.40
2018-06-18T10:36:11.587Z,9.30
2018-06-18T10:37:11.738Z,6.50
2018-06-18T10:38:11.667Z,8.80
2018-06-18T10:39:12.337Z,7.30
2018-06-18T10:40:11.642Z,7.60
2018-06-18T10:41:11.727Z,7.70
2018-06-18T10:42:11.762Z,8.10
2018-06-18T10:43:11.673Z,7.20
2018-06-18T10:44:11.640Z,10.00
2018-06-18T10:45:11.700Z,9.60
2018-06-18T10:46:11.657Z,7.00
2018-06-18T10:47:11.738Z,9.60
2018-06-18T10:48:11.669Z,9.90
2018-06-18T10:49:11.667Z,7.60
2018-06-18T10:50:11.681Z,8.20
2018-06-18T10:51:11.723Z,8.00
2018-06-18T10:52:11.663Z,7.80
2018-06-18T10:53:11.675Z,6.90
2018-06-18T10:54:11.642Z,7.40
2018-06-18T10:55:11.879Z,6.60
2018-06-18T10:56:11.669Z,7.80
2018-06-18T10:57:11.705Z,6.90
2018-06-18T10:58:11.715Z,7.00
2018-06-18T10:59:11.673Z,9.30
2018-06-18T11:00:12.565Z,6.80
2018-06-18T11:01:11.690Z,7.60
2018-06-18T11:02:11.910Z,8.30
2018-06-18T11:03:11.690Z,8.20
2018-06-18T11:04:11.732Z,8.70
2018-06-18T11:05:11.743Z,7.40
2018-06-18T11:06:11.697Z,7.90
2018-06-18T11:07:11.707Z,8.30
2018-06-18T11:08:11.800Z,8.10
2018-06-18T11:09:11.716Z,8.30
2018-06-18T11:10:11.760Z,8.50
2018-06-18T11:11:11.767Z,8.50
2018-06-18T11:12:11.789Z,7.90
2018-06-18T11:13:11.757Z,8.40
2018-06-18T11:14:11.773Z,10.10
2018-06-18T11:15:11.738Z,8.60
2018-06-18T11:16:11.850Z,8.90
2018-06-18T11:17:12.037Z,8.90
2018-06-18T11:18:11.831Z,9.30
2018-06-18T11:19:11.802Z,7.70
2018-06-18T11:20:11.807Z,7.80
2018-06-18T11:21:11.811Z,7.80
2018-06-18T11:22:11.891Z,8.40
2018-06-18T11:23:11.920Z,9.20
2018-06-18T11:24:11.812Z,9.10
2018-06-18T11:26:11.846Z,8.30
2018-06-18T11:27:11.859Z,9.30
2018-06-18T11:28:11.966Z,7.70
2018-06-18T11:29:11.886Z,8.90
2018-06-18T11:30:12.578Z,10.90
2018-06-18T11:31:11.922Z,7.30
2018-06-18T11:32:11.899Z,7.70
2018-06-18T11:33:11.886Z,6.70
2018-06-18T11:34:11.923Z,7.70
2018-06-18T11:35:11.957Z,6.50
2018-06-18T11:36:11.896Z,7.70
2018-06-18T11:37:11.918Z,8.10
2018-06-18T11:38:12.132Z,7.20
2018-06-18T11:39:11.944Z,7.70
2018-06-18T11:40:11.925Z,7.90
2018-06-18T11:41:12.077Z,7.30
2018-06-18T11:42:11.941Z,7.70
2018-06-18T11:43:11.932Z,8.80
2018-06-18T11:44:11.949Z,8.50
2018-06-18T11:45:12.078Z,9.40
2018-06-18T11:46:11.895Z,8.10
2018-06-18T11:47:11.993Z,7.70
2018-06-18T11:48:12.605Z,9.20
2018-06-18T11:49:12.062Z,6.80
2018-06-18T11:50:12.067Z,8.50
2018-06-18T11:51:12.003Z,7.00
2018-06-18T11:52:12.587Z,9.20
2018-06-18T11:53:11.975Z,7.00
2018-06-18T11:54:12.064Z,7.00
2018-06-18T11:55:12.042Z,6.70
2018-06-18T11:56:12.523Z,7.20
2018-06-18T11:57:12.763Z,7.40
2018-06-18T11:58:12.436Z,6.60
2018-06-18T11:59:12.264Z,8.00
2018-06-18T12:00:12.179Z,6.00
2018-06-18T12:01:12.142Z,6.90
2018-06-18T12:02:12.090Z,5.40
2018-06-18T12:03:12.142Z,6.60
2018-06-18T12:04:13.592Z,6.70
2018-06-18T12:05:12.062Z,7.80
2018-06-18T12:06:12.082Z,6.70
2018-06-18T12:07:13.344Z,8.20
2018-06-18T12:08:12.043Z,6.50
2018-06-18T12:09:12.048Z,6.40
2018-06-18T12:10:12.116Z,6.80
2018-06-18T12:11:12.271Z,6.10
2018-06-18T12:12:12.235Z,5.80
2018-06-18T12:13:12.149Z,7.20
2018-06-18T12:14:12.070Z,6.90
2018-06-18T12:15:12.602Z,8.00
2018-06-18T12:16:12.108Z,6.70
2018-06-18T12:17:12.187Z,8.20
2018-06-18T12:18:12.110Z,6.90
2018-06-18T12:19:12.121Z,7.10
2018-06-18T12:20:12.136Z,6.30
2018-06-18T12:21:12.172Z,7.20
2018-06-18T12:22:12.115Z,5.80
2018-06-18T12:23:12.119Z,7.60
2018-06-18T12:24:12.091Z,6.10
2018-06-18T12:25:12.169Z,8.30
2018-06-18T12:26:12.145Z,7.30
2018-06-18T12:27:12.119Z,7.10
2018-06-18T12:28:12.120Z,6.00
2018-06-18T12:29:50.309Z,7.90
2018-06-18T12:30:49.689Z,10.40
2018-06-18T12:31:49.776Z,7.80
2018-06-18T12:32:49.758Z,5.30
2018-06-18T12:33:49.843Z,4.60
2018-06-18T12:34:49.723Z,5.90
2018-06-18T12:35:49.719Z,5.60
2018-06-18T12:36:49.763Z,5.10
2018-06-18T12:37:49.779Z,6.80
2018-06-18T12:38:49.799Z,6.00
2018-06-18T12:39:49.840Z,5.60
2018-06-18T12:40:49.846Z,5.60
2018-06-18T12:41:49.787Z,5.70
2018-06-18T12:42:49.779Z,8.50
2018-06-18T12:43:49.797Z,5.40
2018-06-18T12:44:49.822Z,6.50
2018-06-18T12:45:49.878Z,5.50
2018-06-18T12:46:49.874Z,8.30
2018-06-18T12:47:49.821Z,6.20
2018-06-18T12:48:49.824Z,7.20
2018-06-18T12:49:49.829Z,6.80
2018-06-18T12:50:49.798Z,8.10
2018-06-18T12:51:49.992Z,10.20
2018-06-18T12:52:49.849Z,7.60
2018-06-18T12:53:49.809Z,6.20
2018-06-18T12:54:49.889Z,6.80
2018-06-18T12:55:49.823Z,9.20
2018-06-18T12:56:49.900Z,6.40
2018-06-18T12:57:49.833Z,6.80
2018-06-18T12:58:49.906Z,7.20
2018-06-18T12:59:50.290Z,6.50
2018-06-18T13:00:49.879Z,5.40
2018-06-18T13:01:49.887Z,5.10
2018-06-18T13:02:50.090Z,5.70
2018-06-18T13:03:49.902Z,5.40
2018-06-18T13:04:51.073Z,6.50
2018-06-18T13:05:49.963Z,6.20
2018-06-18T13:06:49.897Z,8.70
2018-06-18T13:07:49.908Z,5.90
2018-06-18T13:08:49.960Z,7.80
2018-06-18T13:09:49.917Z,5.70
2018-06-18T13:10:50.567Z,6.70
2018-06-18T13:11:50.022Z,5.30
2018-06-18T13:12:49.995Z,5.30
2018-06-18T13:13:50.198Z,5.30
2018-06-18T13:14:50.114Z,3.90
2018-06-18T13:15:50.090Z,5.00
2018-06-18T13:16:52.776Z,6.40
2018-06-18T13:17:50.080Z,5.20
2018-06-18T13:18:50.093Z,5.20
2018-06-18T13:19:50.392Z,6.60
2018-06-18T13:20:50.092Z,7.40
2018-06-18T13:21:49.989Z,6.00
2018-06-18T13:22:50.215Z,6.30
2018-06-18T13:23:49.997Z,7.60
2018-06-18T13:24:50.427Z,6.10
2018-06-18T13:25:50.123Z,6.90
2018-06-18T13:26:50.490Z,7.50
2018-06-18T13:27:50.806Z,6.20
2018-06-18T13:28:50.622Z,7.00
2018-06-18T13:29:50.246Z,5.70
2018-06-18T13:30:50.434Z,6.20
2018-06-18T13:31:50.272Z,6.80
2018-06-18T13:32:51.348Z,9.20
2018-06-18T13:33:50.161Z,6.50
2018-06-18T13:34:50.178Z,7.00
2018-06-18T13:35:50.177Z,6.90
2018-06-18T13:36:50.057Z,6.10
2018-06-18T13:37:50.209Z,6.60
2018-06-18T13:38:50.178Z,6.80
2018-06-18T13:39:50.150Z,7.00
2018-06-18T13:40:50.136Z,7.90
2018-06-18T13:41:50.195Z,7.60
2018-06-18T13:42:50.161Z,8.10
2018-06-18T13:43:50.328Z,8.00
2018-06-18T13:44:50.391Z,8.40
2018-06-18T13:45:50.369Z,8.50
2018-06-18T13:46:50.589Z,8.50
2018-06-18T13:47:50.359Z,8.30
2018-06-18T13:48:50.835Z,8.50
2018-06-18T13:49:50.588Z,8.50
2018-06-18T13:50:50.590Z,9.40
2018-06-18T13:51:50.324Z,8.60
2018-06-18T13:52:50.374Z,7.30
2018-06-18T13:53:50.130Z,10.10
2018-06-18T13:54:50.232Z,8.80
2018-06-18T13:55:50.200Z,7.50
2018-06-18T13:56:50.601Z,6.70
2018-06-18T13:57:50.153Z,8.80
2018-06-18T13:58:50.125Z,7.40
2018-06-18T13:59:50.189Z,7.40
2018-06-18T14:00:50.107Z,6.70
2018-06-18T14:01:50.124Z,7.00
2018-06-18T14:02:50.293Z,7.90
2018-06-18T14:03:50.408Z,6.80
2018-06-18T14:04:50.151Z,7.50
2018-06-18T14:05:50.517Z,7.50
2018-06-18T14:06:50.133Z,7.90
2018-06-18T14:07:50.214Z,7.60
2018-06-18T14:08:50.227Z,8.50
2018-06-18T14:09:50.403Z,9.40
2018-06-18T14:10:50.158Z,9.30
2018-06-18T14:11:50.172Z,9.90
2018-06-18T14:12:50.204Z,10.30
2018-06-18T14:13:50.267Z,10.10
2018-06-18T14:14:50.246Z,10.10
2018-06-18T14:15:50.231Z,9.40
2018-06-18T14:16:50.271Z,7.90
2018-06-18T14:17:51.321Z,8.50
2018-06-18T14:18:50.337Z,9.10
2018-06-18T14:19:50.312Z,9.10
2018-06-18T14:20:50.304Z,9.30
2018-06-18T14:21:50.247Z,9.00
2018-06-18T14:22:50.239Z,9.50
2018-06-18T14:23:50.365Z,8.20
2018-06-18T14:24:50.255Z,8.00
2018-06-18T14:25:50.264Z,8.30
2018-06-18T14:26:50.295Z,8.10
2018-06-18T14:27:50.272Z,7.80
2018-06-18T14:28:50.309Z,7.70
2018-06-18T14:29:50.376Z,6.60
2018-06-18T14:30:50.468Z,8.20
2018-06-18T14:31:50.485Z,7.20
2018-06-18T14:32:50.676Z,8.10
2018-06-18T14:33:50.332Z,8.90
2018-06-18T14:34:50.306Z,8.00
2018-06-18T14:35:50.289Z,8.60
2018-06-18T14:36:50.426Z,8.70
2018-06-18T14:37:51.109Z,8.50
2018-06-18T14:38:50.338Z,8.50
2018-06-18T14:39:50.495Z,9.10
2018-06-18T14:40:51.222Z,8.60
2018-06-18T14:41:50.455Z,8.30
2018-06-18T14:42:51.373Z,8.50
2018-06-18T14:43:50.694Z,8.40
2018-06-18T14:44:51.110Z,7.50
2018-06-18T14:45:51.161Z,8.60
2018-06-18T14:46:50.513Z,8.50
2018-06-18T14:47:50.375Z,8.70
2018-06-18T14:48:50.475Z,8.40
2018-06-18T14:49:50.336Z,7.70
2018-06-18T14:50:51.118Z,8.60
2018-06-18T14:51:50.435Z,7.90
2018-06-18T14:52:50.477Z,8.00
2018-06-18T14:53:50.871Z,8.20
2018-06-18T14:54:50.703Z,8.00
2018-06-18T14:55:51.133Z,10.20
2018-06-18T14:56:50.784Z,8.40
2018-06-18T14:57:51.139Z,8.10
2018-06-18T14:58:51.469Z,8.30
2018-06-18T14:59:50.410Z,8.10
2018-06-18T15:00:50.775Z,8.30
2018-06-18T15:01:50.388Z,8.40
2018-06-18T15:02:50.389Z,8.70
2018-06-18T15:03:50.522Z,8.20
2018-06-18T15:04:50.410Z,9.50
2018-06-18T15:05:50.427Z,9.40
2018-06-18T15:06:50.387Z,10.10
2018-06-18T15:07:50.430Z,10.10
2018-06-18T15:08:50.461Z,9.50
2018-06-18T15:09:50.390Z,9.90
2018-06-18T15:10:50.678Z,10.40
2018-06-18T15:11:50.464Z,9.90
2018-06-18T15:12:50.524Z,10.20
2018-06-18T15:13:50.506Z,9.70
2018-06-18T15:14:50.809Z,9.80
2018-06-18T15:15:50.668Z,10.50
2018-06-18T15:16:50.560Z,10.90
2018-06-18T15:17:50.552Z,11.10
2018-06-18T15:18:50.497Z,9.90
2018-06-18T15:19:50.480Z,11.40
2018-06-18T15:20:51.087Z,10.70
2018-06-18T15:21:50.738Z,10.80
2018-06-18T15:22:51.457Z,10.90
2018-06-18T15:23:51.594Z,10.50
2018-06-18T15:24:50.572Z,10.00
2018-06-18T15:25:50.871Z,9.80
2018-06-18T15:26:51.756Z,11.10
2018-06-18T15:27:50.838Z,10.40
2018-06-18T15:28:51.670Z,9.50
2018-06-18T15:29:50.492Z,10.20
2018-06-18T15:30:50.522Z,8.90
2018-06-18T15:31:50.492Z,9.30
2018-06-18T15:32:51.182Z,9.80
2018-06-18T15:33:50.498Z,9.40
2018-06-18T15:34:50.602Z,9.80
2018-06-18T15:35:50.577Z,10.50
2018-06-18T15:36:50.547Z,9.30
2018-06-18T15:37:50.565Z,9.40
2018-06-18T15:38:52.108Z,9.70
2018-06-18T15:39:50.604Z,9.40
2018-06-18T15:40:50.612Z,9.20
2018-06-18T15:41:50.723Z,9.30
2018-06-18T15:42:50.545Z,9.20
2018-06-18T15:43:50.578Z,9.60
2018-06-18T15:44:50.631Z,9.30
2018-06-18T15:45:50.640Z,9.40
2018-06-18T15:46:50.674Z,8.90
2018-06-18T15:47:50.621Z,8.50
2018-06-18T15:48:50.806Z,8.90
2018-06-18T15:49:50.695Z,8.90
2018-06-18T15:50:51.171Z,9.00
2018-06-18T15:51:50.617Z,9.50
2018-06-18T15:52:50.602Z,10.10
2018-06-18T15:53:50.626Z,9.40
2018-06-18T15:54:50.617Z,9.70
2018-06-18T15:55:50.715Z,8.90
2018-06-18T15:56:50.754Z,9.40
2018-06-18T15:57:50.648Z,9.40
2018-06-18T15:58:50.639Z,9.20
2018-06-18T15:59:50.622Z,8.90
2018-06-18T16:00:50.593Z,8.70
2018-06-18T16:01:50.588Z,9.00
2018-06-18T16:02:50.642Z,9.40
2018-06-18T16:03:50.709Z,9.10
2018-06-18T16:04:50.734Z,9.30
2018-06-18T16:05:50.613Z,8.90
2018-06-18T16:06:51.795Z,9.10
2018-06-18T16:07:50.614Z,8.90
2018-06-18T16:08:50.615Z,8.90
2018-06-18T16:09:51.512Z,9.60
2018-06-18T16:10:50.633Z,10.60
2018-06-18T16:11:51.153Z,9.80
2018-06-18T16:12:50.641Z,9.60
2018-06-18T16:13:50.666Z,9.40
2018-06-18T16:14:50.681Z,9.80
2018-06-18T16:15:50.783Z,10.20
2018-06-18T16:16:50.688Z,10.40
2018-06-18T16:17:50.838Z,10.60
2018-06-18T16:18:50.677Z,9.90
2018-06-18T16:19:50.878Z,10.20
2018-06-18T16:20:50.700Z,10.70
2018-06-18T16:21:50.701Z,10.10
2018-06-18T16:22:50.706Z,11.50
2018-06-18T16:23:50.699Z,11.30
2018-06-18T16:24:50.689Z,11.40
2018-06-18T16:25:50.724Z,12.70
2018-06-18T16:26:50.693Z,12.70
2018-06-18T16:27:50.688Z,11.90
2018-06-18T16:28:50.688Z,12.60
2018-06-18T16:29:50.721Z,12.50
2018-06-18T16:30:50.712Z,13.20
2018-06-18T16:31:50.774Z,12.90
2018-06-18T16:32:50.795Z,11.80
2018-06-18T16:33:50.832Z,12.70
2018-06-18T16:34:50.727Z,12.70
2018-06-18T16:35:50.746Z,13.40
2018-06-18T16:36:50.737Z,13.30
2018-06-18T16:37:50.760Z,13.30
2018-06-18T16:38:50.822Z,13.10
2018-06-18T16:39:50.744Z,13.10
2018-06-18T16:40:50.782Z,12.60
2018-06-18T16:41:50.739Z,13.10
2018-06-18T16:42:50.775Z,12.50
2018-06-18T16:43:50.758Z,12.80
2018-06-18T16:44:50.782Z,12.10
2018-06-18T16:45:50.815Z,12.10
2018-06-18T16:46:51.665Z,12.20
2018-06-18T16:47:50.901Z,12.10
2018-06-18T16:48:50.791Z,12.60
2018-06-18T16:49:50.823Z,12.50
2018-06-18T16:50:50.793Z,12.10
2018-06-18T16:51:50.822Z,12.70
2018-06-18T16:52:50.878Z,12.90
2018-06-18T16:53:50.837Z,12.60
2018-06-18T16:54:50.803Z,12.90
2018-06-18T16:55:50.801Z,13.20
2018-06-18T16:56:50.859Z,13.20
2018-06-18T16:57:50.849Z,12.60
2018-06-18T16:58:50.856Z,12.20
2018-06-18T16:59:50.830Z,12.40
2018-06-18T17:00:50.839Z,13.20
2018-06-18T17:01:50.852Z,13.60
2018-06-18T17:02:50.890Z,13.90
2018-06-18T17:03:50.835Z,14.10
2018-06-18T17:04:50.892Z,12.90
2018-06-18T17:05:50.875Z,13.40
2018-06-18T17:06:50.887Z,14.00
2018-06-18T17:07:50.863Z,15.10
2018-06-18T17:08:50.863Z,13.60
2018-06-18T17:09:50.860Z,14.80
2018-06-18T17:10:50.929Z,13.40
2018-06-18T17:11:50.871Z,13.30
2018-06-18T17:12:50.945Z,15.40
2018-06-18T17:13:50.946Z,13.30
2018-06-18T17:14:50.924Z,13.20
2018-06-18T17:15:51.679Z,13.50
2018-06-18T17:16:50.935Z,14.60
2018-06-18T17:17:50.939Z,14.50
2018-06-18T17:18:50.907Z,14.90
2018-06-18T17:19:50.932Z,14.30
2018-06-18T17:20:51.015Z,14.40
2018-06-18T17:21:50.930Z,13.80
2018-06-18T17:22:50.945Z,15.40
2018-06-18T17:23:50.935Z,13.90
2018-06-18T17:24:50.939Z,14.10
2018-06-18T17:25:50.944Z,13.20
2018-06-18T17:26:50.927Z,14.30
2018-06-18T17:27:50.956Z,14.00
2018-06-18T17:28:50.964Z,13.60
2018-06-18T17:29:50.974Z,12.90
2018-06-18T17:30:50.930Z,12.70
2018-06-18T17:31:51.079Z,13.50
2018-06-18T17:32:51.001Z,13.00
2018-06-18T17:33:50.988Z,12.90
2018-06-18T17:34:51.006Z,13.20
2018-06-18T17:35:51.040Z,12.90
2018-06-18T17:36:51.010Z,12.30
2018-06-18T17:37:51.031Z,13.10
2018-06-18T17:38:50.964Z,13.50
2018-06-18T17:39:50.981Z,13.00
2018-06-18T17:40:50.974Z,12.90
2018-06-18T17:41:51.043Z,12.50
2018-06-18T17:42:50.984Z,12.40
2018-06-18T17:43:51.059Z,12.90
2018-06-18T17:44:51.026Z,12.60
2018-06-18T17:45:51.069Z,11.60
2018-06-18T17:46:51.054Z,12.50
2018-06-18T17:47:51.093Z,12.40
2018-06-18T17:48:51.036Z,11.80
2018-06-18T17:49:51.109Z,12.00
2018-06-18T17:50:51.041Z,12.80
2018-06-18T17:51:51.074Z,12.30
2018-06-18T17:52:51.058Z,12.10
2018-06-18T17:53:51.081Z,12.40
2018-06-18T17:54:51.059Z,11.80
2018-06-18T17:55:51.118Z,11.70
2018-06-18T17:56:51.072Z,12.80
2018-06-18T17:57:51.089Z,11.60
2018-06-18T17:58:51.090Z,11.60
2018-06-18T17:59:51.111Z,11.00
2018-06-18T18:00:51.041Z,11.00
2018-06-18T18:01:51.133Z,11.40
2018-06-18T18:02:51.100Z,11.50
2018-06-18T18:03:51.701Z,12.20
2018-06-18T18:04:51.062Z,11.70
2018-06-18T18:05:51.066Z,12.30
2018-06-18T18:06:51.077Z,11.50
2018-06-18T18:07:51.193Z,12.10
2018-06-18T18:08:51.067Z,11.70
2018-06-18T18:09:51.074Z,12.60
2018-06-18T18:10:51.089Z,11.70
2018-06-18T18:11:51.118Z,11.60
2018-06-18T18:12:51.102Z,11.10
2018-06-18T18:13:51.124Z,11.40
2018-06-18T18:14:51.117Z,11.40
2018-06-18T18:15:51.201Z,12.00
2018-06-18T18:16:51.135Z,11.60
2018-06-18T18:17:51.168Z,12.40
2018-06-18T18:18:51.157Z,11.70
2018-06-18T18:19:51.116Z,12.10
2018-06-18T18:20:51.157Z,12.00
2018-06-18T18:21:51.144Z,11.40
2018-06-18T18:22:51.162Z,11.90
2018-06-18T18:23:51.122Z,11.20
2018-06-18T18:24:51.150Z,14.30
2018-06-18T18:25:51.173Z,12.00
2018-06-18T18:26:51.134Z,11.20
2018-06-18T18:27:51.140Z,10.80
2018-06-18T18:28:51.140Z,11.40
2018-06-18T18:29:51.170Z,10.80
2018-06-18T18:30:51.157Z,11.80
2018-06-18T18:31:51.196Z,12.40
2018-06-18T18:32:51.165Z,11.70
2018-06-18T18:33:51.212Z,11.50
2018-06-18T18:34:51.258Z,10.90
2018-06-18T18:35:51.199Z,10.60
2018-06-18T18:36:51.182Z,11.20
2018-06-18T18:37:51.186Z,12.10
2018-06-18T18:38:51.175Z,11.60
2018-06-18T18:39:51.187Z,11.10
2018-06-18T18:40:51.195Z,11.50
2018-06-18T18:41:51.208Z,11.70
2018-06-18T18:42:51.219Z,11.40
2018-06-18T18:43:51.716Z,11.00
2018-06-18T18:44:51.247Z,10.50
2018-06-18T18:45:51.222Z,10.90
2018-06-18T18:46:51.333Z,10.70
2018-06-18T18:47:51.236Z,10.70
2018-06-18T18:48:51.244Z,11.30
2018-06-18T18:49:51.246Z,10.80
2018-06-18T18:50:51.248Z,10.80
2018-06-18T18:51:51.239Z,10.80
2018-06-18T18:52:51.244Z,11.50
2018-06-18T18:53:51.246Z,11.00
2018-06-18T18:54:51.284Z,11.30
2018-06-18T18:55:51.300Z,11.50
2018-06-18T18:56:51.286Z,11.60
2018-06-18T18:57:51.246Z,11.70
2018-06-18T18:58:51.249Z,12.10
2018-06-18T18:59:51.289Z,11.00
2018-06-18T19:00:51.322Z,10.70
2018-06-18T19:01:52.220Z,11.10
2018-06-18T19:02:51.336Z,11.30
2018-06-18T19:03:51.284Z,11.50
2018-06-18T19:04:51.262Z,10.70
2018-06-18T19:05:51.271Z,11.00
2018-06-18T19:06:51.283Z,12.20
2018-06-18T19:07:51.304Z,11.10
2018-06-18T19:08:51.320Z,10.70
2018-06-18T19:09:51.357Z,11.70
2018-06-18T19:10:51.288Z,11.50
2018-06-18T19:11:51.480Z,11.90
2018-06-18T19:12:51.328Z,11.10
2018-06-18T19:13:51.313Z,11.20
2018-06-18T19:14:51.325Z,11.40
2018-06-18T19:15:51.317Z,10.30
2018-06-18T19:16:51.307Z,10.40
2018-06-18T19:17:51.340Z,10.90
2018-06-18T19:18:51.318Z,10.80
2018-06-18T19:19:51.346Z,11.00
2018-06-18T19:20:51.345Z,10.80
2018-06-18T19:21:51.362Z,11.50
2018-06-18T19:22:51.330Z,11.20
2018-06-18T19:23:51.366Z,12.20
2018-06-18T19:24:51.347Z,12.00
2018-06-18T19:25:51.338Z,12.10
2018-06-18T19:26:51.339Z,12.00
2018-06-18T19:27:51.353Z,12.40
2018-06-18T19:28:51.347Z,12.80
2018-06-18T19:29:51.371Z,12.90
2018-06-18T19:30:51.363Z,12.40
2018-06-18T19:31:51.367Z,13.30
2018-06-18T19:32:51.365Z,13.00
2018-06-18T19:33:51.375Z,12.30
2018-06-18T19:34:51.385Z,13.10
2018-06-18T19:35:51.380Z,12.80
2018-06-18T19:36:51.391Z,13.00
2018-06-18T19:37:51.400Z,11.60
2018-06-18T19:38:51.404Z,12.90
2018-06-18T19:39:51.403Z,12.10
2018-06-18T19:40:51.395Z,12.50
2018-06-18T19:41:51.423Z,12.30
2018-06-18T19:42:51.430Z,12.70
2018-06-18T19:43:51.412Z,12.50
2018-06-18T19:44:51.418Z,11.90
2018-06-18T19:45:51.448Z,12.10
2018-06-18T19:46:51.431Z,13.00
2018-06-18T19:47:51.416Z,12.50
2018-06-18T19:48:51.417Z,13.30
2018-06-18T19:49:51.418Z,13.80
2018-06-18T19:50:51.424Z,12.90
2018-06-18T19:51:51.422Z,13.20
2018-06-18T19:52:51.420Z,13.10
2018-06-18T19:53:51.450Z,13.30
2018-06-18T19:54:51.447Z,13.00
2018-06-18T19:55:51.449Z,13.90
2018-06-18T19:56:51.447Z,13.10
2018-06-18T19:57:51.500Z,14.00
2018-06-18T19:58:51.453Z,13.70
2018-06-18T19:59:51.545Z,13.60
2018-06-18T20:00:51.944Z,14.20
2018-06-18T20:01:51.501Z,14.60
2018-06-18T20:02:51.466Z,14.60
2018-06-18T20:03:51.511Z,14.10
2018-06-18T20:04:51.480Z,14.80
2018-06-18T20:05:51.566Z,14.80
2018-06-18T20:06:51.485Z,15.10
2018-06-18T20:07:51.497Z,15.30
2018-06-18T20:08:51.504Z,15.60
2018-06-18T20:09:51.523Z,16.00
2018-06-18T20:10:51.541Z,15.20
2018-06-18T20:11:51.560Z,15.40
2018-06-18T20:12:51.523Z,16.70
2018-06-18T20:13:51.602Z,14.90
2018-06-18T20:14:51.543Z,16.70
2018-06-18T20:15:51.589Z,16.60
2018-06-18T20:16:51.592Z,15.30
2018-06-18T20:17:52.395Z,17.20
2018-06-18T20:18:51.795Z,17.10
2018-06-18T20:19:51.644Z,17.60
2018-06-18T20:20:51.589Z,17.10
2018-06-18T20:21:51.807Z,17.60
2018-06-18T20:22:51.507Z,17.50
2018-06-18T20:23:51.515Z,18.10
2018-06-18T20:24:51.516Z,18.60
2018-06-18T20:25:51.537Z,17.70
2018-06-18T20:26:51.538Z,18.10
2018-06-18T20:27:51.547Z,18.50
2018-06-18T20:28:51.531Z,19.20
2018-06-18T20:29:51.572Z,19.80
2018-06-18T20:30:51.587Z,18.70
2018-06-18T20:31:51.581Z,19.30
2018-06-18T20:32:51.678Z,18.70
2018-06-18T20:33:51.548Z,18.50
2018-06-18T20:34:51.614Z,19.40
2018-06-18T20:35:51.571Z,19.70
2018-06-18T20:36:51.593Z,19.00
2018-06-18T20:37:51.586Z,18.80
2018-06-18T20:38:51.624Z,19.30
2018-06-18T20:39:51.583Z,19.70
2018-06-18T20:40:51.828Z,19.20
2018-06-18T20:41:51.654Z,18.90
2018-06-18T20:42:51.595Z,18.40
2018-06-18T20:43:52.590Z,18.80
2018-06-18T20:44:53.080Z,18.30
2018-06-18T20:45:51.889Z,18.80
2018-06-18T20:46:52.406Z,18.50
2018-06-18T20:47:51.746Z,18.30
2018-06-18T20:48:52.287Z,17.70
2018-06-18T20:49:51.595Z,19.30
2018-06-18T20:50:52.296Z,19.20
2018-06-18T20:51:51.608Z,18.90
2018-06-18T20:52:51.646Z,18.70
2018-06-18T20:53:51.627Z,18.30
2018-06-18T20:54:51.641Z,18.20
2018-06-18T20:55:51.634Z,18.10
2018-06-18T20:56:51.661Z,19.50
2018-06-18T20:57:51.629Z,19.60
2018-06-18T20:58:51.776Z,18.20
2018-06-18T20:59:52.288Z,18.70
2018-06-18T21:00:51.678Z,18.90
2018-06-18T21:01:51.750Z,18.70
2018-06-18T21:02:51.691Z,18.50
2018-06-18T21:03:51.650Z,17.60
2018-06-18T21:04:51.684Z,17.50
2018-06-18T21:05:51.641Z,17.80
2018-06-18T21:06:51.700Z,20.00
2018-06-18T21:07:52.884Z,18.20
2018-06-18T21:08:51.644Z,18.80
2018-06-18T21:09:51.665Z,19.00
2018-06-18T21:10:51.653Z,18.70
2018-06-18T21:11:51.646Z,19.10
2018-06-18T21:12:51.659Z,18.60
2018-06-18T21:13:51.688Z,17.70
2018-06-18T21:14:51.701Z,19.00
2018-06-18T21:15:51.667Z,18.30
2018-06-18T21:16:51.673Z,18.10
2018-06-18T21:17:51.700Z,17.80
2018-06-18T21:18:51.717Z,18.90
2018-06-18T21:19:51.707Z,17.90
2018-06-18T21:20:51.670Z,17.20
2018-06-18T21:21:51.713Z,18.80
2018-06-18T21:22:51.687Z,17.20
2018-06-18T21:23:51.713Z,17.60
2018-06-18T21:24:51.730Z,17.80
2018-06-18T21:25:51.730Z,17.50
2018-06-18T21:26:51.844Z,17.80
2018-06-18T21:27:51.724Z,17.00
2018-06-18T21:28:51.721Z,16.80
2018-06-18T21:29:51.714Z,17.30
2018-06-18T21:30:52.287Z,16.60
2018-06-18T21:31:51.791Z,15.90